sensor_id;sensor_type;location;lat;lon;timestamp;pressure;altitude;pressure_sealevel;temperature;humidity
52745;BME280;38637;49.984;20.426;2023-03-16T00:00:23;99470.19;;;2.15;69.24
52745;BME280;38637;49.984;20.426;2023-03-16T00:02:48;99466.88;;;2.13;69.31
52745;BME280;38637;49.984;20.426;2023-03-16T00:05:14;99467.47;;;2.08;69.52
52745;BME280;38637;49.984;20.426;2023-03-16T00:07:40;99477.00;;;2.04;69.53
52745;BME280;38637;49.984;20.426;2023-03-16T00:10:06;99480.72;;;2.03;69.68
52745;BME280;38637;49.984;20.426;2023-03-16T00:12:32;99480.09;;;2.01;69.72
52745;BME280;38637;49.984;20.426;2023-03-16T00:14:59;99478.44;;;2.00;70.00
52745;BME280;38637;49.984;20.426;2023-03-16T00:17:25;99486.28;;;1.95;70.43
52745;BME280;38637;49.984;20.426;2023-03-16T00:19:52;99483.19;;;1.91;70.12
52745;BME280;38637;49.984;20.426;2023-03-16T00:22:24;99491.44;;;1.90;70.83
52745;BME280;38637;49.984;20.426;2023-03-16T00:24:49;99486.69;;;1.85;70.83
52745;BME280;38637;49.984;20.426;2023-03-16T00:27:15;99476.91;;;1.77;70.89
52745;BME280;38637;49.984;20.426;2023-03-16T00:29:45;99485.44;;;1.81;71.00
52745;BME280;38637;49.984;20.426;2023-03-16T00:32:20;99487.28;;;1.80;70.99
52745;BME280;38637;49.984;20.426;2023-03-16T00:34:46;99495.16;;;1.75;71.42
52745;BME280;38637;49.984;20.426;2023-03-16T00:37:14;99491.19;;;1.71;72.04
52745;BME280;38637;49.984;20.426;2023-03-16T00:39:41;99496.56;;;1.71;72.22
52745;BME280;38637;49.984;20.426;2023-03-16T00:42:08;99502.34;;;1.68;72.51
52745;BME280;38637;49.984;20.426;2023-03-16T00:44:34;99492.44;;;1.69;72.57
52745;BME280;38637;49.984;20.426;2023-03-16T00:47:01;99499.03;;;1.66;72.66
52745;BME280;38637;49.984;20.426;2023-03-16T00:49:26;99502.75;;;1.65;73.23
52745;BME280;38637;49.984;20.426;2023-03-16T00:51:51;99495.06;;;1.62;73.65
52745;BME280;38637;49.984;20.426;2023-03-16T00:54:17;99498.16;;;1.59;73.57
52745;BME280;38637;49.984;20.426;2023-03-16T00:56:42;99501.06;;;1.57;73.83
52745;BME280;38637;49.984;20.426;2023-03-16T00:59:07;99500.81;;;1.52;74.32
52745;BME280;38637;49.984;20.426;2023-03-16T01:01:33;99510.13;;;1.50;74.48
52745;BME280;38637;49.984;20.426;2023-03-16T01:03:59;99513.22;;;1.47;74.80
52745;BME280;38637;49.984;20.426;2023-03-16T01:06:24;99513.63;;;1.44;74.50
52745;BME280;38637;49.984;20.426;2023-03-16T01:08:50;99517.97;;;1.38;75.03
52745;BME280;38637;49.984;20.426;2023-03-16T01:11:18;99515.84;;;1.33;75.10
52745;BME280;38637;49.984;20.426;2023-03-16T01:13:45;99525.53;;;1.28;75.37
52745;BME280;38637;49.984;20.426;2023-03-16T01:16:14;99534.00;;;1.25;75.54
52745;BME280;38637;49.984;20.426;2023-03-16T01:18:39;99537.72;;;1.24;75.61
52745;BME280;38637;49.984;20.426;2023-03-16T01:21:07;99535.03;;;1.24;75.34
52745;BME280;38637;49.984;20.426;2023-03-16T01:23:33;99543.34;;;1.29;75.37
52745;BME280;38637;49.984;20.426;2023-03-16T01:25:59;99544.41;;;1.34;75.33
52745;BME280;38637;49.984;20.426;2023-03-16T01:28:27;99546.09;;;1.35;75.67
52745;BME280;38637;49.984;20.426;2023-03-16T01:30:54;99552.06;;;1.37;75.56
52745;BME280;38637;49.984;20.426;2023-03-16T01:33:22;99546.69;;;1.37;75.60
52745;BME280;38637;49.984;20.426;2023-03-16T01:36:09;99532.59;;;1.29;76.19
52745;BME280;38637;49.984;20.426;2023-03-16T01:38:35;99536.00;;;1.16;76.18
52745;BME280;38637;49.984;20.426;2023-03-16T01:41:01;99541.97;;;1.11;77.09
52745;BME280;38637;49.984;20.426;2023-03-16T01:43:28;99544.03;;;1.09;76.67
52745;BME280;38637;49.984;20.426;2023-03-16T01:54:20;99556.56;;;0.96;76.62
52745;BME280;38637;49.984;20.426;2023-03-16T01:57:01;99554.25;;;0.93;76.51
52745;BME280;38637;49.984;20.426;2023-03-16T01:59:40;99556.13;;;0.92;77.03
52745;BME280;38637;49.984;20.426;2023-03-16T02:02:08;99569.75;;;0.90;77.04
52745;BME280;38637;49.984;20.426;2023-03-16T02:04:42;99552.09;;;0.81;76.75
52745;BME280;38637;49.984;20.426;2023-03-16T02:07:09;99562.44;;;0.84;77.14
52745;BME280;38637;49.984;20.426;2023-03-16T02:09:39;99564.88;;;0.79;77.09
52745;BME280;38637;49.984;20.426;2023-03-16T02:12:08;99568.34;;;0.73;77.13
52745;BME280;38637;49.984;20.426;2023-03-16T02:14:34;99578.47;;;0.71;77.16
52745;BME280;38637;49.984;20.426;2023-03-16T02:16:59;99577.38;;;0.65;77.16
52745;BME280;38637;49.984;20.426;2023-03-16T02:19:38;99582.50;;;0.60;77.64
52745;BME280;38637;49.984;20.426;2023-03-16T02:22:07;99578.72;;;0.55;77.70
52745;BME280;38637;49.984;20.426;2023-03-16T02:24:35;99583.63;;;0.51;77.66
52745;BME280;38637;49.984;20.426;2023-03-16T02:27:02;99587.16;;;0.52;77.77
52745;BME280;38637;49.984;20.426;2023-03-16T02:32:08;99590.59;;;0.45;77.48
52745;BME280;38637;49.984;20.426;2023-03-16T02:34:34;99597.00;;;0.44;78.01
52745;BME280;38637;49.984;20.426;2023-03-16T02:37:00;99588.69;;;0.39;78.13
52745;BME280;38637;49.984;20.426;2023-03-16T02:39:25;99596.94;;;0.38;77.71
52745;BME280;38637;49.984;20.426;2023-03-16T02:41:51;99592.50;;;0.30;78.26
52745;BME280;38637;49.984;20.426;2023-03-16T02:44:23;99584.59;;;0.22;78.18
52745;BME280;38637;49.984;20.426;2023-03-16T02:46:51;99601.97;;;0.26;78.79
52745;BME280;38637;49.984;20.426;2023-03-16T02:49:24;99609.38;;;0.24;78.86
52745;BME280;38637;49.984;20.426;2023-03-16T02:51:52;99601.53;;;0.22;78.47
52745;BME280;38637;49.984;20.426;2023-03-16T02:54:17;99621.34;;;0.21;79.17
52745;BME280;38637;49.984;20.426;2023-03-16T02:56:42;99616.53;;;0.17;79.20
52745;BME280;38637;49.984;20.426;2023-03-16T02:59:08;99622.94;;;0.16;79.10
52745;BME280;38637;49.984;20.426;2023-03-16T03:01:33;99627.66;;;0.14;79.23
52745;BME280;38637;49.984;20.426;2023-03-16T03:04:01;99627.66;;;0.14;79.65
52745;BME280;38637;49.984;20.426;2023-03-16T03:06:27;99620.63;;;0.13;79.10
52745;BME280;38637;49.984;20.426;2023-03-16T03:08:52;99630.72;;;0.11;79.70
52745;BME280;38637;49.984;20.426;2023-03-16T03:11:17;99629.44;;;0.07;79.88
52745;BME280;38637;49.984;20.426;2023-03-16T03:13:44;99628.97;;;0.03;80.08
52745;BME280;38637;49.984;20.426;2023-03-16T03:16:10;99635.72;;;-0.01;80.54
52745;BME280;38637;49.984;20.426;2023-03-16T03:18:35;99635.25;;;-0.05;80.64
52745;BME280;38637;49.984;20.426;2023-03-16T03:21:00;99642.50;;;-0.05;80.67
52745;BME280;38637;49.984;20.426;2023-03-16T03:23:26;99641.00;;;-0.08;80.63
52745;BME280;38637;49.984;20.426;2023-03-16T03:25:51;99641.38;;;-0.11;80.92
52745;BME280;38637;49.984;20.426;2023-03-16T03:28:16;99632.41;;;-0.18;81.04
52745;BME280;38637;49.984;20.426;2023-03-16T03:30:42;99657.47;;;-0.11;81.11
52745;BME280;38637;49.984;20.426;2023-03-16T03:33:07;99655.06;;;-0.06;81.27
52745;BME280;38637;49.984;20.426;2023-03-16T03:35:33;99659.03;;;-0.02;80.92
52745;BME280;38637;49.984;20.426;2023-03-16T03:37:58;99670.53;;;0.07;81.32
52745;BME280;38637;49.984;20.426;2023-03-16T03:40:23;99670.44;;;0.15;81.32
52745;BME280;38637;49.984;20.426;2023-03-16T03:42:48;99670.31;;;0.23;80.89
52745;BME280;38637;49.984;20.426;2023-03-16T03:45:15;99679.47;;;0.29;80.85
52745;BME280;38637;49.984;20.426;2023-03-16T03:47:43;99674.19;;;0.36;81.24
52745;BME280;38637;49.984;20.426;2023-03-16T03:50:10;99677.53;;;0.38;80.75
52745;BME280;38637;49.984;20.426;2023-03-16T03:52:35;99657.72;;;0.24;81.16
52745;BME280;38637;49.984;20.426;2023-03-16T03:55:01;99670.59;;;0.29;81.08
52745;BME280;38637;49.984;20.426;2023-03-16T03:57:26;99675.50;;;0.25;81.49
52745;BME280;38637;49.984;20.426;2023-03-16T03:59:51;99674.03;;;0.22;81.07
52745;BME280;38637;49.984;20.426;2023-03-16T04:02:17;99681.88;;;0.24;81.22
52745;BME280;38637;49.984;20.426;2023-03-16T04:04:42;99681.88;;;0.24;81.34
52745;BME280;38637;49.984;20.426;2023-03-16T04:07:08;99683.94;;;0.22;81.27
52745;BME280;38637;49.984;20.426;2023-03-16T04:09:33;99684.41;;;0.26;81.04
52745;BME280;38637;49.984;20.426;2023-03-16T04:12:00;99684.78;;;0.22;81.13
52745;BME280;38637;49.984;20.426;2023-03-16T04:14:26;99687.63;;;0.21;81.16
52745;BME280;38637;49.984;20.426;2023-03-16T04:16:51;99696.91;;;0.18;81.31
52745;BME280;38637;49.984;20.426;2023-03-16T04:19:18;99698.50;;;0.13;82.09
52745;BME280;38637;49.984;20.426;2023-03-16T04:21:43;99698.03;;;0.09;82.06
52745;BME280;38637;49.984;20.426;2023-03-16T04:24:09;99690.97;;;0.08;81.98
52745;BME280;38637;49.984;20.426;2023-03-16T04:26:34;99699.78;;;0.02;82.41
52745;BME280;38637;49.984;20.426;2023-03-16T04:28:59;99699.69;;;-0.05;82.58
52745;BME280;38637;49.984;20.426;2023-03-16T04:31:26;99690.44;;;-0.17;82.44
52745;BME280;38637;49.984;20.426;2023-03-16T04:33:51;99707.66;;;-0.11;82.69
52745;BME280;38637;49.984;20.426;2023-03-16T04:36:20;99713.38;;;-0.14;83.00
52745;BME280;38637;49.984;20.426;2023-03-16T04:38:48;99711.69;;;-0.15;82.63
52745;BME280;38637;49.984;20.426;2023-03-16T04:41:14;99720.59;;;-0.15;82.47
52745;BME280;38637;49.984;20.426;2023-03-16T04:43:39;99717.44;;;-0.18;82.79
52745;BME280;38637;49.984;20.426;2023-03-16T04:46:04;99729.38;;;-0.21;82.92
52745;BME280;38637;49.984;20.426;2023-03-16T04:48:31;99712.53;;;-0.30;82.54
52745;BME280;38637;49.984;20.426;2023-03-16T04:50:57;99725.94;;;-0.30;82.89
52745;BME280;38637;49.984;20.426;2023-03-16T04:53:23;99725.50;;;-0.33;82.98
52745;BME280;38637;49.984;20.426;2023-03-16T04:55:48;99730.72;;;-0.40;83.39
52745;BME280;38637;49.984;20.426;2023-03-16T04:58:14;99728.22;;;-0.41;83.19
52745;BME280;38637;49.984;20.426;2023-03-16T05:00:40;99730.56;;;-0.38;83.46
52745;BME280;38637;49.984;20.426;2023-03-16T05:03:07;99733.22;;;-0.38;83.09
52745;BME280;38637;49.984;20.426;2023-03-16T05:05:34;99740.91;;;-0.35;82.96
52745;BME280;38637;49.984;20.426;2023-03-16T05:07:59;99736.59;;;-0.36;83.38
52745;BME280;38637;49.984;20.426;2023-03-16T05:10:25;99742.22;;;-0.31;83.67
52745;BME280;38637;49.984;20.426;2023-03-16T05:12:51;99738.16;;;-0.27;83.57
52745;BME280;38637;49.984;20.426;2023-03-16T05:15:16;99745.66;;;-0.22;83.41
52745;BME280;38637;49.984;20.426;2023-03-16T05:17:42;99742.44;;;-0.18;82.73
52745;BME280;38637;49.984;20.426;2023-03-16T05:20:09;99741.22;;;-0.15;83.22
52745;BME280;38637;49.984;20.426;2023-03-16T05:22:37;99746.50;;;-0.07;83.16
52745;BME280;38637;49.984;20.426;2023-03-16T05:25:04;99742.09;;;0.00;83.11
52745;BME280;38637;49.984;20.426;2023-03-16T05:27:29;99749.50;;;0.13;82.57
52745;BME280;38637;49.984;20.426;2023-03-16T05:29:55;99751.81;;;0.31;82.29
52745;BME280;38637;49.984;20.426;2023-03-16T05:32:20;99743.47;;;0.40;81.80
52745;BME280;38637;49.984;20.426;2023-03-16T05:34:45;99753.25;;;0.63;81.36
52745;BME280;38637;49.984;20.426;2023-03-16T05:37:11;99757.59;;;0.79;80.75
52745;BME280;38637;49.984;20.426;2023-03-16T05:39:36;99757.94;;;0.90;80.12
52745;BME280;38637;49.984;20.426;2023-03-16T05:42:02;99762.44;;;1.05;79.61
52745;BME280;38637;49.984;20.426;2023-03-16T05:44:27;99761.47;;;1.12;79.43
52745;BME280;38637;49.984;20.426;2023-03-16T05:46:53;99761.44;;;1.27;78.83
52745;BME280;38637;49.984;20.426;2023-03-16T05:49:18;99767.56;;;1.43;78.61
52745;BME280;38637;49.984;20.426;2023-03-16T05:51:43;99766.25;;;1.53;78.12
52745;BME280;38637;49.984;20.426;2023-03-16T05:54:09;99776.78;;;1.55;77.97
52745;BME280;38637;49.984;20.426;2023-03-16T05:56:34;99778.66;;;1.54;77.76
52745;BME280;38637;49.984;20.426;2023-03-16T05:58:59;99782.38;;;1.53;77.95
52745;BME280;38637;49.984;20.426;2023-03-16T06:01:25;99786.53;;;1.56;77.47
52745;BME280;38637;49.984;20.426;2023-03-16T06:03:51;99777.69;;;1.62;77.31
52745;BME280;38637;49.984;20.426;2023-03-16T06:06:18;99771.81;;;1.52;76.89
52745;BME280;38637;49.984;20.426;2023-03-16T06:08:43;99777.63;;;1.55;77.27
52745;BME280;38637;49.984;20.426;2023-03-16T06:11:09;99783.53;;;1.44;77.40
52745;BME280;38637;49.984;20.426;2023-03-16T06:13:35;99791.63;;;1.44;77.44
52745;BME280;38637;49.984;20.426;2023-03-16T06:16:01;99795.31;;;1.43;77.56
52745;BME280;38637;49.984;20.426;2023-03-16T06:18:26;99797.81;;;1.45;77.58
52745;BME280;38637;49.984;20.426;2023-03-16T06:20:52;99794.81;;;1.33;77.76
52745;BME280;38637;49.984;20.426;2023-03-16T06:23:17;99805.19;;;1.36;77.47
52745;BME280;38637;49.984;20.426;2023-03-16T06:25:48;99799.22;;;1.41;77.49
52745;BME280;38637;49.984;20.426;2023-03-16T06:28:14;99807.50;;;1.39;77.57
52745;BME280;38637;49.984;20.426;2023-03-16T06:30:40;99801.28;;;1.38;77.66
52745;BME280;38637;49.984;20.426;2023-03-16T06:33:05;99802.94;;;1.40;77.43
52745;BME280;38637;49.984;20.426;2023-03-16T06:35:31;99787.94;;;1.30;77.67
52745;BME280;38637;49.984;20.426;2023-03-16T06:37:57;99812.75;;;1.47;77.42
52745;BME280;38637;49.984;20.426;2023-03-16T06:40:23;99815.06;;;1.50;77.28
52745;BME280;38637;49.984;20.426;2023-03-16T06:42:49;99808.06;;;1.56;77.45
52745;BME280;38637;49.984;20.426;2023-03-16T06:45:14;99812.88;;;1.60;76.94
52745;BME280;38637;49.984;20.426;2023-03-16T06:47:42;99816.00;;;1.64;77.18
52745;BME280;38637;49.984;20.426;2023-03-16T06:50:08;99809.59;;;1.65;76.69
52745;BME280;38637;49.984;20.426;2023-03-16T06:52:34;99822.94;;;1.73;76.82
52745;BME280;38637;49.984;20.426;2023-03-16T06:54:59;99830.44;;;1.78;76.57
52745;BME280;38637;49.984;20.426;2023-03-16T06:57:25;99831.88;;;1.80;77.72
52745;BME280;38637;49.984;20.426;2023-03-16T06:59:50;99820.22;;;1.95;77.60
52745;BME280;38637;49.984;20.426;2023-03-16T07:02:15;99822.78;;;2.03;77.49
52745;BME280;38637;49.984;20.426;2023-03-16T07:04:41;99814.06;;;2.01;77.42
52745;BME280;38637;49.984;20.426;2023-03-16T07:07:08;99837.13;;;2.10;76.48
52745;BME280;38637;49.984;20.426;2023-03-16T07:09:34;99839.28;;;2.21;76.68
52745;BME280;38637;49.984;20.426;2023-03-16T07:11:59;99843.28;;;2.32;76.44
52745;BME280;38637;49.984;20.426;2023-03-16T07:14:25;99846.03;;;2.39;75.88
52745;BME280;38637;49.984;20.426;2023-03-16T07:16:50;99845.16;;;2.32;74.91
52745;BME280;38637;49.984;20.426;2023-03-16T07:19:17;99850.59;;;2.38;75.43
52745;BME280;38637;49.984;20.426;2023-03-16T07:21:42;99848.22;;;2.57;75.60
52745;BME280;38637;49.984;20.426;2023-03-16T07:24:09;99843.75;;;2.70;74.87
52745;BME280;38637;49.984;20.426;2023-03-16T07:26:35;99851.69;;;2.79;74.74
52745;BME280;38637;49.984;20.426;2023-03-16T07:29:00;99847.75;;;2.81;73.95
52745;BME280;38637;49.984;20.426;2023-03-16T07:31:26;99848.81;;;2.87;73.46
52745;BME280;38637;49.984;20.426;2023-03-16T07:33:51;99862.53;;;2.85;73.16
52745;BME280;38637;49.984;20.426;2023-03-16T07:36:17;99856.88;;;2.80;72.75
52745;BME280;38637;49.984;20.426;2023-03-16T07:38:42;99857.75;;;2.87;73.88
52745;BME280;38637;49.984;20.426;2023-03-16T07:41:08;99861.88;;;2.83;71.73
52745;BME280;38637;49.984;20.426;2023-03-16T07:43:33;99856.47;;;2.83;72.23
52745;BME280;38637;49.984;20.426;2023-03-16T07:45:59;99864.84;;;2.95;71.67
52745;BME280;38637;49.984;20.426;2023-03-16T07:48:26;99854.47;;;2.98;70.96
52745;BME280;38637;49.984;20.426;2023-03-16T07:50:51;99863.81;;;3.03;71.06
52745;BME280;38637;49.984;20.426;2023-03-16T07:53:17;99860.13;;;3.04;70.67
52745;BME280;38637;49.984;20.426;2023-03-16T07:55:43;99866.78;;;3.08;70.49
52745;BME280;38637;49.984;20.426;2023-03-16T07:58:09;99858.69;;;3.14;70.31
52745;BME280;38637;49.984;20.426;2023-03-16T08:00:35;99867.69;;;3.21;69.95
52745;BME280;38637;49.984;20.426;2023-03-16T08:03:01;99868.94;;;3.32;69.81
52745;BME280;38637;49.984;20.426;2023-03-16T08:05:27;99860.84;;;3.32;67.72
52745;BME280;38637;49.984;20.426;2023-03-16T08:07:52;99860.44;;;3.35;68.31
52745;BME280;38637;49.984;20.426;2023-03-16T08:10:18;99866.88;;;3.34;66.32
52745;BME280;38637;49.984;20.426;2023-03-16T08:12:44;99864.38;;;3.39;65.35
52745;BME280;38637;49.984;20.426;2023-03-16T08:15:10;99854.22;;;3.35;65.74
52745;BME280;38637;49.984;20.426;2023-03-16T08:17:35;99876.25;;;3.52;65.68
52745;BME280;38637;49.984;20.426;2023-03-16T08:20:03;99880.66;;;3.53;64.30
52745;BME280;38637;49.984;20.426;2023-03-16T08:22:34;99873.78;;;3.57;63.73
52745;BME280;38637;49.984;20.426;2023-03-16T08:25:04;99876.72;;;3.62;64.09
52745;BME280;38637;49.984;20.426;2023-03-16T08:27:30;99874.03;;;3.68;64.54
52745;BME280;38637;49.984;20.426;2023-03-16T08:29:56;99879.25;;;3.77;64.11
52745;BME280;38637;49.984;20.426;2023-03-16T08:32:21;99867.41;;;3.78;63.83
52745;BME280;38637;49.984;20.426;2023-03-16T08:34:47;99876.16;;;3.86;64.68
52745;BME280;38637;49.984;20.426;2023-03-16T08:37:12;99863.06;;;3.97;65.16
52745;BME280;38637;49.984;20.426;2023-03-16T08:39:41;99871.16;;;4.03;63.27
52745;BME280;38637;49.984;20.426;2023-03-16T08:42:08;99874.28;;;4.07;62.18
52745;BME280;38637;49.984;20.426;2023-03-16T08:44:34;99878.03;;;4.06;62.84
52745;BME280;38637;49.984;20.426;2023-03-16T08:47:00;99880.56;;;4.07;61.90
52745;BME280;38637;49.984;20.426;2023-03-16T08:49:26;99882.63;;;4.12;62.30
52745;BME280;38637;49.984;20.426;2023-03-16T08:51:53;99883.25;;;4.34;61.44
52745;BME280;38637;49.984;20.426;2023-03-16T08:54:18;99875.97;;;4.48;61.47
52745;BME280;38637;49.984;20.426;2023-03-16T08:56:43;99879.03;;;4.71;60.78
52745;BME280;38637;49.984;20.426;2023-03-16T08:59:09;99887.16;;;4.78;59.67
52745;BME280;38637;49.984;20.426;2023-03-16T09:01:34;99884.25;;;4.73;58.06
52745;BME280;38637;49.984;20.426;2023-03-16T09:03:59;99890.06;;;4.76;58.20
52745;BME280;38637;49.984;20.426;2023-03-16T09:06:25;99882.50;;;5.12;57.52
52745;BME280;38637;49.984;20.426;2023-03-16T09:08:51;99889.66;;;5.38;56.24
52745;BME280;38637;49.984;20.426;2023-03-16T09:11:18;99880.28;;;5.40;56.93
52745;BME280;38637;49.984;20.426;2023-03-16T09:13:44;99883.75;;;5.61;56.18
52745;BME280;38637;49.984;20.426;2023-03-16T09:16:11;99885.31;;;5.75;55.43
52745;BME280;38637;49.984;20.426;2023-03-16T09:18:37;99888.81;;;5.82;53.59
52745;BME280;38637;49.984;20.426;2023-03-16T09:21:04;99888.34;;;5.92;52.81
52745;BME280;38637;49.984;20.426;2023-03-16T09:23:31;99887.72;;;5.96;53.35
52745;BME280;38637;49.984;20.426;2023-03-16T09:25:57;99886.81;;;6.34;52.95
52745;BME280;38637;49.984;20.426;2023-03-16T09:28:28;99889.91;;;6.63;51.22
52745;BME280;38637;49.984;20.426;2023-03-16T09:30:54;99883.75;;;6.74;50.58
52745;BME280;38637;49.984;20.426;2023-03-16T09:33:20;99883.03;;;6.60;49.82
52745;BME280;38637;49.984;20.426;2023-03-16T09:35:47;99889.28;;;6.61;50.43
52745;BME280;38637;49.984;20.426;2023-03-16T09:38:12;99885.09;;;6.65;50.82
52745;BME280;38637;49.984;20.426;2023-03-16T09:40:38;99896.84;;;6.59;50.73
52745;BME280;38637;49.984;20.426;2023-03-16T09:43:19;99893.72;;;6.30;47.71
52745;BME280;38637;49.984;20.426;2023-03-16T09:48:21;99889.84;;;6.19;48.82
52745;BME280;38637;49.984;20.426;2023-03-16T09:50:49;99888.97;;;6.26;51.01
52745;BME280;38637;49.984;20.426;2023-03-16T09:53:34;99880.81;;;6.51;50.86
52745;BME280;38637;49.984;20.426;2023-03-16T09:56:03;99894.41;;;6.26;49.93
52745;BME280;38637;49.984;20.426;2023-03-16T09:58:30;99875.34;;;6.07;49.65
52745;BME280;38637;49.984;20.426;2023-03-16T10:06:39;99903.75;;;6.55;50.72
52745;BME280;38637;49.984;20.426;2023-03-16T10:11:57;99906.00;;;6.83;49.76
52745;BME280;38637;49.984;20.426;2023-03-16T10:14:24;99910.63;;;7.19;47.66
52745;BME280;38637;49.984;20.426;2023-03-16T10:17:34;99908.28;;;7.71;46.65
52745;BME280;38637;49.984;20.426;2023-03-16T10:20:05;99907.56;;;7.94;45.08
52745;BME280;38637;49.984;20.426;2023-03-16T10:22:37;99907.16;;;7.79;43.95
52745;BME280;38637;49.984;20.426;2023-03-16T10:25:08;99905.16;;;7.56;43.31
52745;BME280;38637;49.984;20.426;2023-03-16T10:27:39;99907.44;;;7.04;43.53
52745;BME280;38637;49.984;20.426;2023-03-16T10:30:26;99908.56;;;6.78;45.18
52745;BME280;38637;49.984;20.426;2023-03-16T10:32:53;99912.06;;;6.60;45.65
52745;BME280;38637;49.984;20.426;2023-03-16T10:37:56;99909.69;;;6.88;47.11
52745;BME280;38637;49.984;20.426;2023-03-16T10:40:23;99911.38;;;7.08;45.10
52745;BME280;38637;49.984;20.426;2023-03-16T10:42:48;99915.47;;;7.17;42.79
52745;BME280;38637;49.984;20.426;2023-03-16T10:45:43;99915.97;;;7.63;43.27
52745;BME280;38637;49.984;20.426;2023-03-16T10:48:15;99910.94;;;7.78;43.02
52745;BME280;38637;49.984;20.426;2023-03-16T10:50:42;99909.00;;;7.67;43.01
52745;BME280;38637;49.984;20.426;2023-03-16T10:53:21;99899.66;;;7.63;44.59
52745;BME280;38637;49.984;20.426;2023-03-16T10:55:48;99913.63;;;7.48;44.79
52745;BME280;38637;49.984;20.426;2023-03-16T10:58:43;99907.91;;;7.19;44.04
52745;BME280;38637;49.984;20.426;2023-03-16T11:01:30;99908.66;;;7.08;45.03
52745;BME280;38637;49.984;20.426;2023-03-16T11:03:57;99901.88;;;6.99;44.83
52745;BME280;38637;49.984;20.426;2023-03-16T11:06:28;99905.34;;;7.06;45.13
52745;BME280;38637;49.984;20.426;2023-03-16T11:09:04;99907.13;;;6.94;44.57
52745;BME280;38637;49.984;20.426;2023-03-16T11:11:34;99915.28;;;6.50;45.77
52745;BME280;38637;49.984;20.426;2023-03-16T11:14:02;99909.59;;;6.27;46.39
52745;BME280;38637;49.984;20.426;2023-03-16T11:16:36;99909.13;;;6.05;45.68
52745;BME280;38637;49.984;20.426;2023-03-16T11:19:24;99908.53;;;6.03;44.72
52745;BME280;38637;49.984;20.426;2023-03-16T11:27:33;99892.50;;;7.13;44.22
52745;BME280;38637;49.984;20.426;2023-03-16T11:32:55;99893.16;;;7.94;43.20
52745;BME280;38637;49.984;20.426;2023-03-16T11:35:51;99887.53;;;7.77;39.36
52745;BME280;38637;49.984;20.426;2023-03-16T11:41:24;99872.41;;;8.11;40.97
52745;BME280;38637;49.984;20.426;2023-03-16T11:43:55;99879.75;;;8.22;41.27
52745;BME280;38637;49.984;20.426;2023-03-16T11:46:25;99888.75;;;7.81;42.68
52745;BME280;38637;49.984;20.426;2023-03-16T11:52:20;99894.25;;;7.26;43.13
52745;BME280;38637;49.984;20.426;2023-03-16T12:03:43;99874.28;;;8.22;43.33
52745;BME280;38637;49.984;20.426;2023-03-16T12:06:33;99889.81;;;8.34;43.09
52745;BME280;38637;49.984;20.426;2023-03-16T12:11:51;99880.47;;;8.18;42.46
52745;BME280;38637;49.984;20.426;2023-03-16T12:14:28;99883.97;;;8.06;41.85
52745;BME280;38637;49.984;20.426;2023-03-16T12:17:08;99887.66;;;8.12;41.26
52745;BME280;38637;49.984;20.426;2023-03-16T12:19:42;99880.00;;;8.33;41.08
52745;BME280;38637;49.984;20.426;2023-03-16T12:22:21;99871.56;;;8.22;41.08
52745;BME280;38637;49.984;20.426;2023-03-16T12:24:49;99880.59;;;8.35;40.58
52745;BME280;38637;49.984;20.426;2023-03-16T12:27:29;99873.16;;;8.30;40.97
52745;BME280;38637;49.984;20.426;2023-03-16T12:33:03;99886.56;;;8.67;39.70
52745;BME280;38637;49.984;20.426;2023-03-16T12:35:42;99869.91;;;8.63;39.19
52745;BME280;38637;49.984;20.426;2023-03-16T12:48:51;99883.81;;;8.01;40.30
52745;BME280;38637;49.984;20.426;2023-03-16T12:51:17;99888.50;;;7.82;41.78
52745;BME280;38637;49.984;20.426;2023-03-16T12:56:27;99883.41;;;7.56;39.17
52745;BME280;38637;49.984;20.426;2023-03-16T12:58:55;99889.16;;;7.66;39.57
52745;BME280;38637;49.984;20.426;2023-03-16T13:01:28;99895.50;;;7.60;38.64
52745;BME280;38637;49.984;20.426;2023-03-16T13:04:21;99884.03;;;7.58;39.02
52745;BME280;38637;49.984;20.426;2023-03-16T13:07:00;99886.66;;;7.95;39.59
52745;BME280;38637;49.984;20.426;2023-03-16T13:09:27;99875.94;;;8.12;38.03
52745;BME280;38637;49.984;20.426;2023-03-16T13:11:56;99892.66;;;8.27;37.87
52745;BME280;38637;49.984;20.426;2023-03-16T13:14:39;99877.72;;;8.18;38.24
52745;BME280;38637;49.984;20.426;2023-03-16T13:19:40;99883.47;;;7.98;38.59
52745;BME280;38637;49.984;20.426;2023-03-16T13:22:25;99871.94;;;8.14;39.53
52745;BME280;38637;49.984;20.426;2023-03-16T13:24:52;99872.44;;;8.35;41.03
52745;BME280;38637;49.984;20.426;2023-03-16T13:27:31;99881.06;;;8.32;41.50
52745;BME280;38637;49.984;20.426;2023-03-16T13:30:00;99876.50;;;8.44;42.33
52745;BME280;38637;49.984;20.426;2023-03-16T13:32:31;99875.06;;;8.53;41.02
52745;BME280;38637;49.984;20.426;2023-03-16T13:34:59;99874.19;;;8.29;40.97
52745;BME280;38637;49.984;20.426;2023-03-16T13:37:27;99877.75;;;7.88;40.79
52745;BME280;38637;49.984;20.426;2023-03-16T13:39:57;99890.75;;;7.55;41.00
52745;BME280;38637;49.984;20.426;2023-03-16T13:42:28;99878.91;;;7.31;41.73
52745;BME280;38637;49.984;20.426;2023-03-16T13:44:55;99882.72;;;7.12;43.25
52745;BME280;38637;49.984;20.426;2023-03-16T13:47:25;99902.78;;;6.93;43.30
52745;BME280;38637;49.984;20.426;2023-03-16T13:49:56;99889.94;;;6.81;44.35
52745;BME280;38637;49.984;20.426;2023-03-16T13:52:28;99892.53;;;6.70;43.94
52745;BME280;38637;49.984;20.426;2023-03-16T13:54:55;99883.81;;;6.67;44.73
52745;BME280;38637;49.984;20.426;2023-03-16T13:57:24;99893.16;;;6.72;44.61
52745;BME280;38637;49.984;20.426;2023-03-16T13:59:51;99890.28;;;6.66;43.27
52745;BME280;38637;49.984;20.426;2023-03-16T14:02:24;99891.28;;;6.72;43.31
52745;BME280;38637;49.984;20.426;2023-03-16T14:04:49;99904.25;;;6.88;44.09
52745;BME280;38637;49.984;20.426;2023-03-16T14:07:17;99900.72;;;6.88;42.68
52745;BME280;38637;49.984;20.426;2023-03-16T14:09:43;99894.91;;;6.84;43.81
52745;BME280;38637;49.984;20.426;2023-03-16T14:12:15;99905.16;;;6.82;44.20
52745;BME280;38637;49.984;20.426;2023-03-16T14:14:41;99902.50;;;6.76;45.02